Aérodrome :
LOGIN :

S'inscrire | Disclaimer

   EN    FR    IT 

 










Légende :    VFR   VFR Marginal   IFR   IFR Intensif   IFR Très Intensif
Visi : 
Plafond : 
>= 8 km
>= 3000ft
5 à 8 km
1000 à 3000 ft
1500m à 5 km
500 à 1000 ft
800 à 1500m
200 à 500 ft
< 800m
< 200 ft
Symboles :   Orages  Brouillard  Fortes neiges  Fortes précipitations  Vent > 20 kt
SIGMETs :   Divers  Orages  Givrage  Turbulence  Onde Orograph.  Cendres Volcan.







- Altitude de l'aérodrome : 13 ft
- Code IATA : GOA


LIMJ - Genoa Cristoforo Colombo

DERNIER METAR :
  • 220350Z 07004KT 030V120 9999 FEW023 BKN035 18/14 Q1011

METARs EXPIRÉS :
  • 220320Z 00000KT 9999 FEW023 BKN035 17/15 Q1011
  • 220250Z VRB02KT 9999 FEW023 BKN035 17/14 Q1011
  • 220220Z VRB02KT 9999 -RA FEW023 BKN035 17/14 Q1011
  • 220150Z VRB02KT 9999 -RA FEW023 BKN035 17/14 Q1011
  • 220120Z VRB02KT 9999 -RA FEW023 BKN035 18/15 Q1012

TAF TAF LIMJ
Valide du 22 à 00h jusqu'au 23 à 00h UTC


212300Z 2200/2224 20008KT 7000 RA SCT025 BKN050
TEMPO 2200/2206 4000 TSRA
TEMPO 2215/2224 4000 TSRA
Pas de NOTAMs connus pour ce terrain.
1 SIGMET publié pour la FIR Milano (LIMM) :
 
Orages noyés dans la masse
LIMM SIGMET 1 VALID 220337/220537 LIIP
LIMM MILANO FIR EMBD TS FCST WI N4434 E00650 - N4335 E00758 - N4419 E01331 - N4513 E01259 - N4613 E01328 - N4532 E00705 - N4434 E00650 TOP FL330 MOV N NC=



MET'MAP, la Météo Aéronautique d'un coup d'oeil ! - Copyright ORBIFLY Décembre 2007 - Disclaimer

ORBIFLY MET'MAP TEAM :

Programmation & Développement : Alexandra Zaïnal
Conception & Développement : Baudouin d'Aumeries
Co-Programmation & Développement : Marc-Olivier Méhu
Soutien technique & logistique : Manuel Goepfert

Contact : metmap@orbifly.com




SOURCES & CREDITS :

   NOAA